Time;durP1;ratioP1;P1;durP2;ratioP2;P2;SDS_P1;SDS_P2;PMS_P1;PMS_P2;Temp;Humidity;BMP_temperature;BMP_pressure;BME280_temperature;BME280_humidity;BME280_pressure;Samples;Min_cycle;Max_cycle;Signal;HPM_P1;HPM_P2
2021/08/09 00:01:03;;;;;;;10.35;4.00;;;14.90;99.90;;;;;;6246536;22;20344;-83
2021/08/09 00:03:29;;;;;;;14.07;4.40;;;14.90;99.90;;;;;;6272043;22;20082;-83
2021/08/09 00:05:55;;;;;;;10.00;3.53;;;14.80;99.90;;;;;;6195431;22;20074;-84
2021/08/09 00:08:21;;;;;;;8.35;3.95;;;14.80;99.90;;;;;;6220560;22;20015;-84
2021/08/09 00:10:48;;;;;;;12.45;4.38;;;14.80;99.90;;;;;;6218665;22;20019;-81
2021/08/09 00:13:14;;;;;;;11.00;4.22;;;14.80;99.90;;;;;;6218725;22;20074;-83
2021/08/09 00:15:40;;;;;;;11.15;3.95;;;14.80;99.90;;;;;;6228820;22;20043;-81
2021/08/09 00:18:05;;;;;;;10.82;4.30;;;14.70;99.90;;;;;;6246241;22;20062;-85
2021/08/09 00:20:32;;;;;;;10.32;4.30;;;14.70;99.90;;;;;;6244069;22;20058;-83
2021/08/09 00:22:58;;;;;;;8.30;4.20;;;14.70;99.90;;;;;;6271888;22;20012;-82
2021/08/09 00:25:24;;;;;;;9.20;4.10;;;14.70;99.90;;;;;;6245726;22;20023;-84
2021/08/09 00:27:50;;;;;;;11.75;4.30;;;14.70;99.90;;;;;;6218769;22;20117;-81
2021/08/09 00:30:16;;;;;;;10.73;4.00;;;14.70;99.90;;;;;;6217952;22;20069;-82
2021/08/09 00:32:41;;;;;;;18.95;4.75;;;14.70;99.90;;;;;;6243872;22;20007;-82
2021/08/09 00:35:08;;;;;;;10.02;4.05;;;14.70;99.90;;;;;;6269669;22;20015;-83
2021/08/09 00:37:34;;;;;;;8.57;4.22;;;14.70;99.90;;;;;;6267755;22;20008;-82
2021/08/09 00:40:00;;;;;;;11.32;4.55;;;14.70;99.90;;;;;;6267999;22;20336;-83
2021/08/09 00:42:26;;;;;;;12.25;5.07;;;14.70;99.90;;;;;;6244240;22;20018;-82
2021/08/09 00:44:52;;;;;;;15.57;4.45;;;14.70;99.90;;;;;;6217484;22;20016;-83
2021/08/09 00:47:17;;;;;;;9.90;4.55;;;14.70;99.90;;;;;;6241945;22;20118;-82
2021/08/09 00:49:44;;;;;;;14.82;4.63;;;14.70;99.90;;;;;;6242552;22;20026;-82
2021/08/09 00:52:10;;;;;;;12.50;5.05;;;14.70;99.90;;;;;;6220878;22;20020;-82
2021/08/09 00:54:36;;;;;;;13.52;4.38;;;14.70;99.90;;;;;;6218483;22;20467;-83
2021/08/09 00:57:03;;;;;;;18.95;5.80;;;14.70;99.90;;;;;;6243603;22;20442;-83
2021/08/09 00:59:29;;;;;;;14.73;5.03;;;14.70;99.90;;;;;;6269824;22;20024;-82
2021/08/09 01:01:55;;;;;;;12.45;4.80;;;14.70;99.90;;;;;;6219918;22;20016;-84
2021/08/09 01:04:22;;;;;;;17.73;5.40;;;14.80;99.90;;;;;;6244541;22;20444;-84
2021/08/09 01:06:49;;;;;;;15.25;4.97;;;14.80;99.90;;;;;;6271380;22;20523;-83
2021/08/09 01:09:14;;;;;;;12.27;5.50;;;14.80;99.90;;;;;;6244497;22;20008;-82
2021/08/09 01:11:44;;;;;;;14.55;4.70;;;14.80;99.90;;;;;;6244216;22;20018;-83
2021/08/09 01:14:38;;;;;;;11.60;4.72;;;14.80;99.90;;;;;;6223122;22;1113089;-85
2021/08/09 01:17:05;;;;;;;14.82;4.95;;;14.80;99.90;;;;;;6267570;22;20452;-84
2021/08/09 01:19:39;;;;;;;13.00;4.47;;;14.80;99.90;;;;;;6268260;22;20015;-85
2021/08/09 01:22:31;;;;;;;12.35;4.97;;;14.90;99.90;;;;;;6267089;22;20012;-85
2021/08/09 01:25:22;;;;;;;16.05;5.13;;;14.90;99.90;;;;;;6286154;22;20016;-84
2021/08/09 01:27:50;;;;;;;17.02;4.57;;;14.90;99.90;;;;;;6267261;22;20015;-84
2021/08/09 01:30:18;;;;;;;19.27;5.20;;;14.90;99.90;;;;;;6267597;22;20019;-85
2021/08/09 01:32:46;;;;;;;10.88;4.53;;;14.90;99.90;;;;;;6267697;22;20011;-85
2021/08/09 01:35:15;;;;;;;15.02;4.20;;;14.90;99.90;;;;;;6264333;22;20098;-86
2021/08/09 01:37:45;;;;;;;17.15;4.82;;;14.90;99.90;;;;;;6266739;22;20352;-85
2021/08/09 01:40:14;;;;;;;20.95;4.93;;;14.90;99.90;;;;;;6267492;22;20012;-84
2021/08/09 01:42:45;;;;;;;23.05;5.05;;;14.90;99.90;;;;;;6270373;22;20016;-84
2021/08/09 01:45:13;;;;;;;13.00;5.38;;;14.90;99.90;;;;;;6265934;22;20413;-84
2021/08/09 01:47:40;;;;;;;13.75;4.68;;;14.90;99.90;;;;;;6269537;22;20018;-83
2021/08/09 01:50:09;;;;;;;14.02;4.90;;;14.80;99.90;;;;;;6268235;22;20447;-84
2021/08/09 01:52:36;;;;;;;13.18;4.72;;;14.80;99.90;;;;;;6271020;22;20018;-84
2021/08/09 01:55:04;;;;;;;15.45;4.82;;;14.80;99.90;;;;;;6266226;22;20008;-84
2021/08/09 01:57:30;;;;;;;17.38;4.40;;;14.80;99.90;;;;;;6269002;22;20012;-80
2021/08/09 01:59:55;;;;;;;14.80;4.53;;;14.80;99.90;;;;;;6247951;22;20016;-82
2021/08/09 02:02:24;;;;;;;14.00;4.70;;;14.80;99.90;;;;;;6218718;22;20015;-83
2021/08/09 02:04:50;;;;;;;15.00;4.28;;;14.80;99.90;;;;;;6245367;22;20376;-84
2021/08/09 02:07:16;;;;;;;14.07;4.40;;;14.80;99.90;;;;;;6266555;22;20012;-85
2021/08/09 02:09:42;;;;;;;13.48;4.68;;;14.80;99.90;;;;;;6243332;22;20015;-82
2021/08/09 02:12:08;;;;;;;14.43;4.57;;;14.80;99.90;;;;;;6243782;22;20007;-83
2021/08/09 02:14:40;;;;;;;12.40;4.50;;;14.80;99.90;;;;;;6244915;22;20452;-83
2021/08/09 02:17:13;;;;;;;16.55;4.60;;;14.80;99.90;;;;;;6269341;22;20098;-84
2021/08/09 02:20:02;;;;;;;13.82;4.22;;;14.70;99.90;;;;;;6271744;22;20235;-82
2021/08/09 02:22:45;;;;;;;11.70;4.80;;;14.80;99.90;;;;;;6271103;22;20008;-86
2021/08/09 02:25:17;;;;;;;12.70;5.00;;;14.70;99.90;;;;;;6270274;22;20440;-82
2021/08/09 02:27:50;;;;;;;14.25;4.72;;;14.70;99.90;;;;;;6270285;22;20333;-83
2021/08/09 02:30:20;;;;;;;16.17;5.15;;;14.60;99.90;;;;;;6270126;22;20022;-83
2021/08/09 02:32:48;;;;;;;13.80;4.65;;;14.60;99.90;;;;;;6273898;22;20012;-82
2021/08/09 02:35:19;;;;;;;17.98;4.82;;;14.60;99.90;;;;;;6246697;22;20015;-84
2021/08/09 02:37:46;;;;;;;15.50;4.82;;;14.50;99.90;;;;;;6279969;22;20424;-83
2021/08/09 02:40:14;;;;;;;15.98;4.95;;;14.50;99.90;;;;;;6244649;22;20012;-84
2021/08/09 02:42:40;;;;;;;12.32;4.78;;;14.40;99.90;;;;;;6193358;22;20253;-84
2021/08/09 02:45:07;;;;;;;15.02;5.28;;;14.40;99.90;;;;;;6243225;22;20015;-85
2021/08/09 02:47:37;;;;;;;18.23;5.30;;;14.30;99.90;;;;;;6243622;22;20444;-85
2021/08/09 02:50:05;;;;;;;13.90;4.95;;;14.30;99.90;;;;;;6244707;22;20019;-85
2021/08/09 02:52:32;;;;;;;14.68;5.03;;;14.20;99.90;;;;;;6243536;22;20018;-83
2021/08/09 02:55:00;;;;;;;22.08;5.57;;;14.10;99.90;;;;;;6244471;22;20011;-82
2021/08/09 02:57:28;;;;;;;14.88;5.30;;;14.10;99.90;;;;;;6244054;22;20020;-81
2021/08/09 02:59:55;;;;;;;15.70;6.15;;;14.10;99.90;;;;;;6243478;22;20014;-85
2021/08/09 03:02:24;;;;;;;16.55;5.32;;;14.10;99.90;;;;;;6243906;22;20345;-83
2021/08/09 03:04:51;;;;;;;14.70;5.72;;;14.00;99.90;;;;;;6269302;22;20027;-85
2021/08/09 03:07:17;;;;;;;13.93;5.63;;;13.90;99.90;;;;;;6269964;22;20016;-83
2021/08/09 03:09:43;;;;;;;18.80;5.78;;;13.90;99.90;;;;;;6268634;22;20015;-83
2021/08/09 03:12:16;;;;;;;18.48;5.20;;;13.90;99.90;;;;;;6243124;22;20444;-81
2021/08/09 03:14:42;;;;;;;23.52;6.43;;;13.90;99.90;;;;;;6270074;22;20016;-83
2021/08/09 03:17:08;;;;;;;20.48;6.32;;;13.90;99.90;;;;;;6214875;22;20015;-79
2021/08/09 03:19:33;;;;;;;17.98;5.65;;;13.80;99.90;;;;;;6269172;22;20007;-83
2021/08/09 03:22:03;;;;;;;17.25;6.00;;;13.90;99.90;;;;;;6220587;22;20094;-84
2021/08/09 03:24:30;;;;;;;18.02;5.82;;;13.80;99.90;;;;;;6268026;22;20093;-83
2021/08/09 03:26:58;;;;;;;14.38;5.57;;;13.80;99.90;;;;;;6243037;22;20018;-81
2021/08/09 03:29:25;;;;;;;10.40;5.32;;;13.80;99.90;;;;;;6218359;22;20008;-83
2021/08/09 03:31:51;;;;;;;17.58;6.63;;;13.80;99.90;;;;;;6217859;22;20286;-84
2021/08/09 03:34:18;;;;;;;13.50;5.80;;;13.80;99.90;;;;;;6218563;22;20020;-85
2021/08/09 03:36:47;;;;;;;13.45;5.50;;;13.80;99.90;;;;;;6243318;22;20011;-84
2021/08/09 03:39:16;;;;;;;21.67;6.32;;;13.80;99.90;;;;;;6242812;22;20008;-84
2021/08/09 03:41:42;;;;;;;15.73;5.75;;;13.80;99.90;;;;;;6272728;22;20011;-83
2021/08/09 03:44:09;;;;;;;21.02;6.25;;;13.80;99.90;;;;;;6244457;22;20487;-84
2021/08/09 03:46:35;;;;;;;18.60;5.88;;;13.80;99.90;;;;;;6268958;22;20336;-85
2021/08/09 03:49:07;;;;;;;15.85;5.65;;;13.70;99.90;;;;;;6242695;22;20038;-84
2021/08/09 03:51:34;;;;;;;17.40;5.93;;;13.80;99.90;;;;;;6269424;22;20077;-85
2021/08/09 03:54:00;;;;;;;21.05;6.20;;;13.80;99.90;;;;;;6242136;22;20011;-84
2021/08/09 03:56:28;;;;;;;18.15;5.53;;;13.80;99.90;;;;;;6218984;22;20012;-82
2021/08/09 03:58:54;;;;;;;20.55;5.57;;;13.80;99.90;;;;;;6218125;22;20138;-85
2021/08/09 04:01:20;;;;;;;18.98;5.78;;;13.80;99.90;;;;;;6192816;22;20325;-83
2021/08/09 04:03:46;;;;;;;19.35;5.65;;;13.80;99.90;;;;;;6267374;22;20022;-85
2021/08/09 04:06:12;;;;;;;17.48;5.55;;;13.80;99.90;;;;;;6217815;22;20008;-84
2021/08/09 04:08:40;;;;;;;16.15;5.25;;;13.80;99.90;;;;;;6217413;22;20514;-85
2021/08/09 04:11:07;;;;;;;19.98;5.75;;;13.80;99.90;;;;;;6269146;22;20344;-84
2021/08/09 04:13:34;;;;;;;14.88;5.50;;;13.80;99.90;;;;;;6268609;22;20113;-84
2021/08/09 04:16:00;;;;;;;21.17;6.10;;;13.80;99.90;;;;;;6257100;22;20030;-83
2021/08/09 04:18:26;;;;;;;17.23;5.40;;;13.80;99.90;;;;;;6240678;22;20018;-85
2021/08/09 04:20:52;;;;;;;21.00;5.95;;;13.80;99.90;;;;;;6264993;22;20018;-83
2021/08/09 04:23:18;;;;;;;19.80;5.50;;;13.80;99.90;;;;;;6239821;22;20095;-84
2021/08/09 04:25:44;;;;;;;17.05;5.22;;;13.80;99.90;;;;;;6241508;22;20016;-85
2021/08/09 04:28:10;;;;;;;20.23;5.75;;;13.80;99.90;;;;;;6242627;22;20074;-85
2021/08/09 04:30:36;;;;;;;19.98;5.60;;;13.80;99.90;;;;;;6216849;22;20069;-83
2021/08/09 04:33:05;;;;;;;19.00;5.60;;;13.80;99.90;;;;;;6217180;22;20012;-84
2021/08/09 04:35:31;;;;;;;20.73;5.80;;;13.80;99.90;;;;;;6272108;22;20227;-83
2021/08/09 04:37:57;;;;;;;17.85;6.05;;;13.80;99.90;;;;;;6242967;22;20083;-82
2021/08/09 04:40:23;;;;;;;20.50;6.03;;;13.80;99.90;;;;;;6243316;22;20434;-83
2021/08/09 04:42:49;;;;;;;15.48;5.55;;;13.80;99.90;;;;;;6242973;22;20011;-83
2021/08/09 04:45:15;;;;;;;15.15;5.50;;;13.80;99.90;;;;;;6269634;22;20106;-84
2021/08/09 04:47:41;;;;;;;19.33;5.70;;;13.80;99.90;;;;;;6268652;22;20019;-84
2021/08/09 04:50:07;;;;;;;17.65;5.38;;;13.80;99.90;;;;;;6244861;22;20039;-84
2021/08/09 04:52:39;;;;;;;18.98;5.40;;;13.80;99.90;;;;;;6267744;22;20095;-82
2021/08/09 04:55:06;;;;;;;13.80;5.15;;;13.80;99.90;;;;;;6268236;22;20046;-84
2021/08/09 04:57:32;;;;;;;19.35;6.15;;;13.80;99.90;;;;;;6267526;22;20019;-84
2021/08/09 04:59:58;;;;;;;23.17;5.78;;;13.80;99.90;;;;;;6217115;22;20396;-82
2021/08/09 05:02:23;;;;;;;19.02;5.82;;;13.80;99.90;;;;;;6243255;22;20018;-84
2021/08/09 05:04:49;;;;;;;20.48;5.75;;;13.80;99.90;;;;;;6218927;22;20463;-84
2021/08/09 05:07:15;;;;;;;20.70;5.72;;;13.90;99.90;;;;;;6267746;22;20096;-84
2021/08/09 05:09:41;;;;;;;16.27;5.38;;;13.90;99.90;;;;;;6215714;22;20426;-83
2021/08/09 05:12:08;;;;;;;15.88;5.28;;;13.90;99.90;;;;;;6212374;22;20304;-84
2021/08/09 05:14:35;;;;;;;21.02;5.40;;;13.90;99.90;;;;;;6239086;22;20343;-84
2021/08/09 05:17:01;;;;;;;20.38;5.43;;;13.90;99.90;;;;;;6240963;22;20399;-83
2021/08/09 05:19:28;;;;;;;17.23;5.50;;;13.90;99.90;;;;;;6241831;22;20589;-84
2021/08/09 05:21:54;;;;;;;20.23;5.72;;;13.90;99.90;;;;;;6215861;22;20507;-84
2021/08/09 05:24:19;;;;;;;16.73;5.10;;;13.90;99.90;;;;;;6244542;22;20023;-84
2021/08/09 05:26:48;;;;;;;14.57;5.18;;;13.90;99.90;;;;;;6264335;22;20016;-84
2021/08/09 05:29:14;;;;;;;18.35;5.75;;;14.00;99.90;;;;;;6213873;22;20022;-83
2021/08/09 05:31:43;;;;;;;15.18;5.40;;;14.00;99.90;;;;;;6215138;22;20444;-82
2021/08/09 05:34:09;;;;;;;19.17;6.07;;;14.00;99.90;;;;;;6267779;22;20018;-84
2021/08/09 05:36:35;;;;;;;16.13;5.43;;;14.00;99.90;;;;;;6240766;22;20038;-84
2021/08/09 05:39:03;;;;;;;19.10;5.50;;;14.00;99.90;;;;;;6265189;22;20398;-84
2021/08/09 05:41:33;;;;;;;18.92;5.65;;;14.10;99.90;;;;;;6275333;22;20019;-84
2021/08/09 05:43:59;;;;;;;14.13;5.15;;;14.00;99.90;;;;;;6268324;22;20073;-85
2021/08/09 05:46:25;;;;;;;17.10;5.30;;;14.10;99.90;;;;;;6266979;22;20012;-83
2021/08/09 05:48:51;;;;;;;23.02;5.93;;;14.10;99.90;;;;;;6239855;22;20012;-84
2021/08/09 05:51:17;;;;;;;19.17;5.85;;;14.10;99.90;;;;;;6241077;22;20099;-84
2021/08/09 05:53:42;;;;;;;15.25;5.72;;;14.20;99.90;;;;;;6267442;22;20352;-84
2021/08/09 05:56:09;;;;;;;16.35;5.20;;;14.20;99.90;;;;;;6243714;22;20016;-83
2021/08/09 05:58:36;;;;;;;19.42;5.78;;;14.20;99.90;;;;;;6270149;22;20012;-82
2021/08/09 06:01:02;;;;;;;19.08;5.53;;;14.20;99.90;;;;;;6241617;22;20603;-84
2021/08/09 06:03:28;;;;;;;19.30;5.78;;;14.20;99.90;;;;;;6240961;22;20038;-83
2021/08/09 06:05:54;;;;;;;20.10;5.22;;;14.20;99.90;;;;;;6240234;22;20051;-84
2021/08/09 06:08:20;;;;;;;15.68;5.63;;;14.30;99.90;;;;;;6216140;22;20037;-83
2021/08/09 06:10:47;;;;;;;19.13;6.15;;;14.30;99.90;;;;;;6265009;22;20008;-83
2021/08/09 06:13:13;;;;;;;17.13;5.28;;;14.30;99.90;;;;;;6238016;22;20012;-84
2021/08/09 06:15:39;;;;;;;14.82;4.97;;;14.30;99.90;;;;;;6217046;22;20018;-82
2021/08/09 06:18:05;;;;;;;17.77;5.38;;;14.40;99.90;;;;;;6236300;22;20015;-83
2021/08/09 06:20:31;;;;;;;21.90;5.57;;;14.40;99.90;;;;;;6266522;22;20011;-83
2021/08/09 06:22:58;;;;;;;15.82;5.47;;;14.40;99.90;;;;;;6263763;22;20057;-84
2021/08/09 06:25:24;;;;;;;19.45;5.80;;;14.50;99.90;;;;;;6266315;22;20012;-82
2021/08/09 06:27:50;;;;;;;16.63;5.18;;;14.50;99.90;;;;;;6242247;22;20034;-81
2021/08/09 06:30:17;;;;;;;24.27;6.30;;;14.50;99.90;;;;;;6244177;22;20022;-80
2021/08/09 06:32:43;;;;;;;19.90;5.75;;;14.60;99.90;;;;;;6268707;22;20014;-81
2021/08/09 06:35:10;;;;;;;21.48;5.93;;;14.60;99.90;;;;;;6267386;22;20445;-82
2021/08/09 06:37:36;;;;;;;17.00;5.15;;;14.60;99.90;;;;;;6218585;22;20035;-82
2021/08/09 06:40:05;;;;;;;19.85;5.72;;;14.60;99.90;;;;;;6271808;22;20041;-83
2021/08/09 06:42:31;;;;;;;18.05;5.57;;;14.70;99.90;;;;;;6273465;22;20089;-79
2021/08/09 06:44:56;;;;;;;22.05;5.97;;;14.70;99.90;;;;;;6222186;22;20023;-84
2021/08/09 06:47:24;;;;;;;16.23;5.40;;;14.80;99.90;;;;;;6246868;22;20035;-84
2021/08/09 06:49:50;;;;;;;16.77;5.53;;;14.80;99.90;;;;;;6247305;22;20011;-81
2021/08/09 06:52:18;;;;;;;18.05;5.80;;;14.90;99.90;;;;;;6221358;22;20020;-80
2021/08/09 06:54:45;;;;;;;20.10;5.75;;;14.90;99.90;;;;;;6272926;22;20050;-83
2021/08/09 06:57:12;;;;;;;14.18;5.28;;;15.00;99.90;;;;;;6219578;22;20016;-81
2021/08/09 06:59:38;;;;;;;21.35;5.63;;;15.10;99.90;;;;;;6245460;22;20035;-82
2021/08/09 07:02:04;;;;;;;19.92;5.78;;;15.10;99.90;;;;;;6244858;22;20011;-84
2021/08/09 07:04:30;;;;;;;17.27;5.22;;;15.20;99.90;;;;;;6270669;22;20129;-83
2021/08/09 07:06:55;;;;;;;19.55;5.82;;;15.20;99.90;;;;;;6250274;22;20026;-83
2021/08/09 07:09:21;;;;;;;15.52;5.20;;;15.30;99.90;;;;;;6244808;22;20042;-85
2021/08/09 07:11:47;;;;;;;17.25;5.70;;;15.40;99.90;;;;;;6244229;22;20011;-79
2021/08/09 07:14:16;;;;;;;23.98;5.60;;;15.60;99.90;;;;;;6247077;22;20012;-81
2021/08/09 07:16:41;;;;;;;17.00;5.15;;;15.60;99.90;;;;;;6275765;22;20024;-82
2021/08/09 07:19:07;;;;;;;23.60;5.80;;;15.70;99.90;;;;;;6242340;22;20015;-83
2021/08/09 07:21:33;;;;;;;18.35;5.60;;;15.70;99.90;;;;;;6242825;22;20019;-81
2021/08/09 07:23:59;;;;;;;23.13;5.57;;;15.70;99.90;;;;;;6243928;22;20014;-83
2021/08/09 07:26:25;;;;;;;21.05;5.60;;;15.70;99.90;;;;;;6218060;22;20016;-83
2021/08/09 07:28:51;;;;;;;17.92;5.63;;;15.80;99.90;;;;;;6217748;22;20031;-83
2021/08/09 07:31:16;;;;;;;21.10;5.82;;;15.80;99.90;;;;;;6217292;22;20030;-83
2021/08/09 07:33:43;;;;;;;21.40;5.43;;;15.80;99.90;;;;;;6244377;22;20007;-83
2021/08/09 07:36:09;;;;;;;22.85;5.53;;;15.80;99.90;;;;;;6243923;22;20016;-83
2021/08/09 07:38:34;;;;;;;19.55;5.47;;;15.90;99.90;;;;;;6266191;22;20015;-84
2021/08/09 07:41:00;;;;;;;17.92;5.43;;;16.00;99.90;;;;;;6271685;22;20007;-80
2021/08/09 07:43:26;;;;;;;18.92;5.93;;;16.10;99.90;;;;;;6270101;22;20043;-82
2021/08/09 07:45:52;;;;;;;20.08;5.20;;;16.10;99.90;;;;;;6268533;22;20011;-83
2021/08/09 07:48:18;;;;;;;17.05;5.32;;;16.10;99.90;;;;;;6246626;22;20068;-82
2021/08/09 07:50:44;;;;;;;16.15;5.22;;;16.20;99.80;;;;;;6217480;22;20015;-81
2021/08/09 07:53:10;;;;;;;18.40;5.28;;;16.20;99.70;;;;;;6243270;22;20046;-82
2021/08/09 07:55:36;;;;;;;17.23;5.38;;;16.20;99.60;;;;;;6219923;22;20012;-82
2021/08/09 07:58:02;;;;;;;18.52;4.90;;;16.20;99.50;;;;;;6243215;22;20664;-83
2021/08/09 08:00:28;;;;;;;18.55;5.07;;;16.20;99.60;;;;;;6239233;22;20056;-84
2021/08/09 08:02:54;;;;;;;17.13;5.30;;;16.30;99.70;;;;;;6217561;22;20576;-83
2021/08/09 08:05:20;;;;;;;18.85;5.18;;;16.30;99.70;;;;;;6268178;22;20016;-82
2021/08/09 08:07:46;;;;;;;15.77;4.53;;;16.30;99.60;;;;;;6267260;22;20012;-84
2021/08/09 08:10:33;;;;;;;15.88;4.85;;;16.40;99.50;;;;;;6216294;22;20016;-83
2021/08/09 08:15:55;;;;;;;18.13;4.32;;;16.40;99.40;;;;;;6265720;22;20019;-84
2021/08/09 08:18:21;;;;;;;18.55;4.40;;;16.40;99.30;;;;;;6239756;22;20463;-82
2021/08/09 08:20:48;;;;;;;20.98;5.90;;;16.50;99.40;;;;;;6241963;22;20376;-85
2021/08/09 08:23:14;;;;;;;17.52;4.85;;;16.50;99.40;;;;;;6241927;22;20539;-83
2021/08/09 08:25:40;;;;;;;17.85;4.72;;;16.60;99.40;;;;;;6242296;22;20083;-82
2021/08/09 08:28:05;;;;;;;15.60;4.85;;;16.60;99.20;;;;;;6216868;22;20038;-82
2021/08/09 08:30:31;;;;;;;23.15;5.10;;;16.70;99.00;;;;;;6240403;22;20039;-82
2021/08/09 08:32:57;;;;;;;15.40;4.03;;;16.70;98.90;;;;;;6241958;22;20014;-82
2021/08/09 08:35:23;;;;;;;19.65;4.95;;;16.70;98.80;;;;;;6265372;22;20035;-83
2021/08/09 08:37:49;;;;;;;18.92;5.07;;;16.80;98.60;;;;;;6213437;22;20094;-83
2021/08/09 08:40:15;;;;;;;15.85;4.63;;;16.80;98.50;;;;;;6215935;22;20114;-83
2021/08/09 08:42:40;;;;;;;20.17;4.55;;;16.80;98.40;;;;;;6242552;22;20011;-82
2021/08/09 08:45:08;;;;;;;20.67;4.70;;;16.80;98.20;;;;;;6220722;22;20015;-82
2021/08/09 08:47:35;;;;;;;20.48;4.65;;;16.80;98.20;;;;;;6247154;22;20008;-82
2021/08/09 08:50:03;;;;;;;18.67;4.80;;;16.90;98.40;;;;;;6266230;22;20007;-83
2021/08/09 08:52:29;;;;;;;24.55;4.55;;;17.00;98.40;;;;;;6266965;22;20022;-82
2021/08/09 08:54:54;;;;;;;15.70;4.60;;;17.10;98.30;;;;;;6240694;22;20011;-82
2021/08/09 08:57:23;;;;;;;17.30;3.97;;;17.20;98.10;;;;;;6216103;22;20086;-81
2021/08/09 08:59:49;;;;;;;16.80;4.00;;;17.20;98.00;;;;;;6262360;22;20016;-81
2021/08/09 09:02:35;;;;;;;15.00;4.18;;;17.30;98.00;;;;;;6234638;22;20016;-82
2021/08/09 09:05:15;;;;;;;16.10;3.55;;;17.30;97.70;;;;;;6257655;22;20027;-82
2021/08/09 09:07:49;;;;;;;16.15;4.22;;;17.40;97.10;;;;;;6264870;22;20008;-82
2021/08/09 09:10:24;;;;;;;21.08;4.82;;;17.40;96.90;;;;;;6270889;22;20061;-82
2021/08/09 09:13:18;;;;;;;16.83;4.00;;;17.50;97.10;;;;;;6266130;22;20011;-82
2021/08/09 09:15:55;;;;;;;18.85;4.13;;;17.60;97.00;;;;;;6262218;22;20368;-82
2021/08/09 09:18:23;;;;;;;19.05;3.90;;;17.70;97.10;;;;;;6237008;22;20008;-83
2021/08/09 09:20:49;;;;;;;11.15;3.63;;;17.80;96.80;;;;;;6269432;22;20012;-82
2021/08/09 09:23:24;;;;;;;13.45;3.67;;;17.90;96.40;;;;;;6235607;22;20122;-81
2021/08/09 09:25:51;;;;;;;11.15;3.53;;;17.90;96.10;;;;;;6236532;22;20012;-83
2021/08/09 09:28:33;;;;;;;11.65;3.00;;;18.00;95.20;;;;;;6242330;22;20020;-81
2021/08/09 09:31:07;;;;;;;21.83;3.80;;;18.00;95.50;;;;;;6269719;22;20328;-82
2021/08/09 09:33:33;;;;;;;12.45;2.70;;;18.00;95.40;;;;;;6267030;22;20242;-83
2021/08/09 09:36:04;;;;;;;14.05;3.17;;;18.10;94.00;;;;;;6265197;22;20016;-83
2021/08/09 09:38:40;;;;;;;13.20;2.58;;;18.10;94.20;;;;;;6266511;22;20012;-82
2021/08/09 09:41:07;;;;;;;7.70;2.85;;;18.20;93.60;;;;;;6240153;22;20011;-83
2021/08/09 09:43:41;;;;;;;12.60;2.53;;;18.30;92.90;;;;;;6269111;22;20023;-81
2021/08/09 09:46:19;;;;;;;9.85;2.60;;;18.30;92.00;;;;;;6278070;22;20020;-83
2021/08/09 09:48:45;;;;;;;11.98;2.10;;;18.40;91.70;;;;;;6241279;22;20043;-83
2021/08/09 09:51:17;;;;;;;8.40;1.92;;;18.50;91.60;;;;;;6242530;22;20015;-82
2021/08/09 09:53:45;;;;;;;5.78;2.13;;;18.50;90.80;;;;;;6270709;22;20407;-83
2021/08/09 09:56:11;;;;;;;7.47;2.05;;;18.50;90.80;;;;;;6264193;22;20318;-82
2021/08/09 09:58:38;;;;;;;12.80;2.05;;;18.50;91.30;;;;;;6265357;22;20053;-82
2021/08/09 10:01:09;;;;;;;6.85;2.10;;;18.50;91.40;;;;;;6241507;22;20020;-82
2021/08/09 10:03:36;;;;;;;8.02;2.20;;;18.60;91.10;;;;;;6266709;22;20336;-82
2021/08/09 10:06:02;;;;;;;12.23;2.20;;;18.70;91.20;;;;;;6266887;22;20412;-83
2021/08/09 10:08:38;;;;;;;8.95;2.47;;;18.80;90.90;;;;;;6267885;22;20008;-82
2021/08/09 10:11:05;;;;;;;9.98;2.30;;;18.90;91.60;;;;;;6277925;22;20101;-82
2021/08/09 10:13:33;;;;;;;8.60;2.22;;;19.00;90.80;;;;;;6268718;22;20015;-84
2021/08/09 10:16:05;;;;;;;7.32;2.15;;;18.90;90.10;;;;;;6268281;22;20066;-82
2021/08/09 10:18:34;;;;;;;9.70;2.20;;;19.00;90.40;;;;;;6243600;22;20016;-83
2021/08/09 10:21:02;;;;;;;7.38;2.00;;;19.00;90.50;;;;;;6271255;22;20012;-82
2021/08/09 10:23:47;;;;;;;8.15;1.92;;;19.00;90.20;;;;;;6271505;22;20016;-82
2021/08/09 10:26:37;;;;;;;7.07;2.53;;;19.00;90.10;;;;;;6278199;22;20086;-81
2021/08/09 10:29:06;;;;;;;5.72;2.03;;;19.00;90.20;;;;;;6244660;22;20015;-82
2021/08/09 10:31:40;;;;;;;7.45;1.88;;;19.00;90.10;;;;;;6242690;22;20019;-84
2021/08/09 10:34:29;;;;;;;8.23;1.92;;;19.10;90.20;;;;;;6268492;22;20015;-82
2021/08/09 10:37:15;;;;;;;6.55;2.15;;;19.20;88.10;;;;;;6267984;22;20016;-84
2021/08/09 10:39:47;;;;;;;7.38;1.58;;;19.30;87.50;;;;;;6269582;22;20023;-82
2021/08/09 10:42:29;;;;;;;6.25;1.52;;;19.30;87.30;;;;;;6269421;22;20322;-83
2021/08/09 10:44:56;;;;;;;6.03;2.08;;;19.30;88.30;;;;;;6269483;22;20344;-83
2021/08/09 10:47:51;;;;;;;8.85;1.88;;;19.30;86.20;;;;;;6272063;22;20016;-83
2021/08/09 10:50:25;;;;;;;5.32;1.70;;;19.20;86.80;;;;;;6271886;22;20011;-84
2021/08/09 10:52:55;;;;;;;5.25;1.65;;;19.10;86.80;;;;;;6280362;22;20030;-84
2021/08/09 10:55:30;;;;;;;6.55;1.80;;;19.10;86.20;;;;;;6271586;22;20122;-81
2021/08/09 10:58:00;;;;;;;8.85;1.67;;;19.10;86.50;;;;;;6270452;22;20480;-83
2021/08/09 11:00:38;;;;;;;7.70;1.75;;;19.00;86.40;;;;;;6273763;22;20016;-83
2021/08/09 11:03:10;;;;;;;5.97;1.40;;;19.00;87.60;;;;;;6269901;22;20016;-81
2021/08/09 11:05:36;;;;;;;7.13;1.88;;;18.90;87.90;;;;;;6280524;22;20452;-82
2021/08/09 11:08:24;;;;;;;6.20;1.90;;;18.80;89.70;;;;;;6269911;22;20012;-83
2021/08/09 11:11:05;;;;;;;5.82;1.65;;;18.70;90.70;;;;;;6268694;22;20016;-83
2021/08/09 11:13:53;;;;;;;6.22;2.10;;;18.60;91.20;;;;;;6270440;22;20031;-84
2021/08/09 11:16:33;;;;;;;6.22;2.00;;;18.60;91.60;;;;;;6250240;22;20031;-83
2021/08/09 11:18:59;;;;;;;9.35;2.47;;;18.50;91.90;;;;;;6268754;22;20069;-83
2021/08/09 11:21:26;;;;;;;8.32;2.30;;;18.50;92.10;;;;;;6219735;22;20407;-83
2021/08/09 11:23:51;;;;;;;8.15;2.55;;;18.60;92.40;;;;;;6217549;22;20016;-83
2021/08/09 11:26:23;;;;;;;9.35;2.20;;;18.60;92.20;;;;;;6237746;22;20500;-83
2021/08/09 11:29:00;;;;;;;6.50;2.53;;;18.60;92.40;;;;;;6267659;22;20034;-82
2021/08/09 11:31:27;;;;;;;6.82;1.90;;;18.70;92.30;;;;;;6245620;22;20490;-82
2021/08/09 11:33:53;;;;;;;7.63;2.13;;;18.80;92.30;;;;;;6246494;22;20317;-82
2021/08/09 11:36:19;;;;;;;5.47;2.00;;;18.80;92.20;;;;;;6268839;22;20039;-83
2021/08/09 11:38:57;;;;;;;8.10;2.20;;;18.80;92.10;;;;;;6239336;22;20027;-83
2021/08/09 11:41:25;;;;;;;8.70;2.08;;;18.80;92.20;;;;;;6270812;22;20012;-82
2021/08/09 11:44:05;;;;;;;9.25;2.28;;;18.80;92.50;;;;;;6267165;22;20286;-82
2021/08/09 11:46:33;;;;;;;11.07;2.30;;;18.80;92.40;;;;;;6279401;22;20012;-83
2021/08/09 11:48:59;;;;;;;7.32;2.20;;;18.80;92.30;;;;;;6266487;22;20499;-81
2021/08/09 11:51:27;;;;;;;6.45;1.90;;;18.80;92.30;;;;;;6265503;22;20333;-86
2021/08/09 11:53:54;;;;;;;8.95;2.28;;;18.80;92.40;;;;;;6242540;22;20138;-82
2021/08/09 11:56:24;;;;;;;7.50;1.98;;;18.80;92.20;;;;;;6243130;22;20239;-83
2021/08/09 11:58:50;;;;;;;6.00;2.20;;;18.90;92.50;;;;;;6265540;22;20012;-83
2021/08/09 12:01:33;;;;;;;6.93;2.47;;;18.90;92.60;;;;;;6243958;22;20356;-83
2021/08/09 12:04:09;;;;;;;8.55;2.45;;;19.10;92.40;;;;;;6270905;22;20019;-81
2021/08/09 12:07:04;;;;;;;6.00;2.30;;;19.10;92.20;;;;;;6271083;22;20009;-81
2021/08/09 12:09:37;;;;;;;7.00;2.30;;;19.20;91.90;;;;;;6240946;22;20411;-82
2021/08/09 12:12:05;;;;;;;7.05;2.80;;;19.20;91.50;;;;;;6268254;22;20012;-83
2021/08/09 12:14:32;;;;;;;10.85;2.75;;;19.20;92.00;;;;;;6267784;22;20015;-83
2021/08/09 12:17:00;;;;;;;5.68;2.67;;;19.20;91.50;;;;;;6273513;22;20016;-82
2021/08/09 12:19:53;;;;;;;7.70;2.85;;;19.30;91.00;;;;;;6269711;22;20271;-83
2021/08/09 12:22:32;;;;;;;5.07;2.70;;;19.30;91.20;;;;;;6241480;22;20460;-83
2021/08/09 12:25:00;;;;;;;11.32;2.70;;;19.30;91.60;;;;;;6280811;22;20098;-83
2021/08/09 12:27:27;;;;;;;8.45;2.40;;;19.40;91.10;;;;;;6268995;22;20012;-81
2021/08/09 12:30:04;;;;;;;7.18;2.60;;;19.50;91.10;;;;;;6274677;22;20083;-82
2021/08/09 12:32:30;;;;;;;9.10;3.40;;;19.50;91.00;;;;;;6273771;22;20014;-81
2021/08/09 12:34:57;;;;;;;7.93;2.60;;;19.50;91.10;;;;;;6269892;22;20034;-83
2021/08/09 12:37:23;;;;;;;6.10;2.67;;;19.50;90.60;;;;;;6269889;22;20402;-81
2021/08/09 12:39:49;;;;;;;5.57;2.67;;;19.50;90.60;;;;;;6246128;22;20008;-82
2021/08/09 12:42:19;;;;;;;6.78;2.70;;;19.40;90.80;;;;;;6269080;22;20158;-83
2021/08/09 12:44:47;;;;;;;7.03;2.72;;;19.40;91.10;;;;;;6269505;22;20016;-82
2021/08/09 12:47:14;;;;;;;5.35;2.47;;;19.40;91.80;;;;;;6273270;22;20061;-82
2021/08/09 12:49:40;;;;;;;7.72;2.75;;;19.50;92.00;;;;;;6243405;22;20123;-83